Time;durP1;ratioP1;P1;durP2;ratioP2;P2;SDS_P1;SDS_P2;PMS_P1;PMS_P2;Temp;Humidity;BMP_temperature;BMP_pressure;BME280_temperature;BME280_humidity;BME280_pressure;Samples;Min_cycle;Max_cycle;Signal;HPM_P1;HPM_P2
2021/11/15 00:01:31;;;;;;;;;;;;;;;-2.36;82.70;98143.14;108111;1274;59704;-71
2021/11/15 00:04:00;;;;;;;;;;;;;;;-2.37;82.27;98142.83;108052;1271;71583;-70
2021/11/15 00:06:29;;;;;;;;;;;;;;;-2.41;82.66;98145.08;108052;1275;68634;-70
2021/11/15 00:09:00;;;;;;;;;;;;;;;-2.43;82.45;98144.42;107809;1275;69442;-69
2021/11/15 00:11:30;;;;;;;;;;;;;;;-2.45;82.86;98143.41;108057;1275;59698;-68
2021/11/15 00:13:59;;;;;;;;;;;;;;;-2.47;82.31;98143.44;108062;1275;59646;-72
2021/11/15 00:16:28;;;;;;;;;;;;;;;-2.45;80.95;98145.29;108035;1275;71632;-69
2021/11/15 00:18:57;;;;;;;;;;;;;;;-2.44;81.53;98148.36;108116;1272;68797;-72
2021/11/15 00:21:26;;;;;;;;;;;;;;;-2.52;81.41;98145.68;108009;1275;69267;-69
2021/11/15 00:23:55;;;;;;;;;;;;;;;-2.62;81.24;98149.70;108031;1272;59735;-72
2021/11/15 00:26:25;;;;;;;;;;;;;;;-2.69;81.34;98151.64;108095;1272;59668;-70
2021/11/15 00:28:54;;;;;;;;;;;;;;;-2.74;81.26;98149.64;107992;1274;70878;-73
2021/11/15 00:31:24;;;;;;;;;;;;;;;-2.77;81.99;98151.55;108065;1272;68625;-72
2021/11/15 00:33:53;;;;;;;;;;;;;;;-2.79;81.82;98151.72;108070;1274;69245;-71
2021/11/15 00:36:23;;;;;;;;;;;;;;;-2.81;81.68;98149.02;108022;1272;59716;-73
2021/11/15 00:38:52;;;;;;;;;;;;;;;-2.81;82.09;98151.91;108028;1272;59690;-72
2021/11/15 00:41:22;;;;;;;;;;;;;;;-2.79;82.83;98151.73;107931;1275;70555;-73
2021/11/15 00:43:51;;;;;;;;;;;;;;;-2.77;82.82;98148.64;108091;1272;67822;-70
2021/11/15 00:46:21;;;;;;;;;;;;;;;-2.74;82.59;98150.30;108004;1274;68464;-72
2021/11/15 00:48:55;;;;;;;;;;;;;;;-2.71;83.03;98151.15;108024;1275;59787;-72
2021/11/15 00:51:25;;;;;;;;;;;;;;;-2.70;82.73;98155.05;107916;1276;59710;-69
2021/11/15 00:53:57;;;;;;;;;;;;;;;-2.67;82.33;98159.82;107985;1272;70598;-71
2021/11/15 00:56:26;;;;;;;;;;;;;;;-2.66;82.06;98159.80;107927;1276;68111;-72
2021/11/15 00:58:56;;;;;;;;;;;;;;;-2.65;83.16;98158.43;108030;1276;69263;-70
2021/11/15 01:01:25;;;;;;;;;;;;;;;-2.63;82.73;98168.32;108008;1276;59723;-69
2021/11/15 01:03:55;;;;;;;;;;;;;;;-2.60;80.93;98165.39;108049;1276;59703;-73
2021/11/15 01:06:25;;;;;;;;;;;;;;;-2.61;81.54;98169.66;107912;1275;71472;-71
2021/11/15 01:08:55;;;;;;;;;;;;;;;-2.63;81.91;98169.67;108084;1276;67868;-72
2021/11/15 01:11:25;;;;;;;;;;;;;;;-2.68;82.63;98175.35;107994;1275;68691;-70
2021/11/15 01:13:55;;;;;;;;;;;;;;;-2.73;82.17;98176.58;107930;1273;59755;-70
2021/11/15 01:16:25;;;;;;;;;;;;;;;-2.78;82.71;98176.80;108039;1273;59773;-71
2021/11/15 01:18:54;;;;;;;;;;;;;;;-2.82;82.21;98177.84;107934;1274;69802;-72
2021/11/15 01:21:27;;;;;;;;;;;;;;;-2.85;81.93;98181.45;107931;1276;68720;-72
2021/11/15 01:23:59;;;;;;;;;;;;;;;-2.93;83.57;98182.18;107949;1276;69543;-71
2021/11/15 01:26:29;;;;;;;;;;;;;;;-2.97;84.00;98187.50;107933;1276;59778;-70
2021/11/15 01:28:59;;;;;;;;;;;;;;;-2.96;82.35;98190.56;108027;1275;59770;-71
2021/11/15 01:31:29;;;;;;;;;;;;;;;-2.95;82.03;98188.52;107913;1274;71007;-69
2021/11/15 01:34:01;;;;;;;;;;;;;;;-2.94;82.07;98194.83;108000;1275;69667;-71
2021/11/15 01:36:32;;;;;;;;;;;;;;;-2.95;82.26;98193.64;108013;1276;69460;-72
2021/11/15 01:39:01;;;;;;;;;;;;;;;-2.92;81.95;98200.09;108068;1276;59776;-70
2021/11/15 01:41:31;;;;;;;;;;;;;;;-2.88;81.59;98198.02;107806;1274;59710;-74
2021/11/15 01:44:02;;;;;;;;;;;;;;;-2.84;81.97;98198.85;107927;1272;70756;-73
2021/11/15 01:46:33;;;;;;;;;;;;;;;-2.82;82.41;98197.12;108198;1273;68498;-71
2021/11/15 01:49:03;;;;;;;;;;;;;;;-2.81;83.46;98197.80;107982;1275;68485;-69
2021/11/15 01:51:32;;;;;;;;;;;;;;;-2.83;84.57;98197.81;108067;1274;59719;-72
2021/11/15 01:54:02;;;;;;;;;;;;;;;-2.87;85.10;98195.11;107940;1275;59723;-71
2021/11/15 01:56:32;;;;;;;;;;;;;;;-2.92;85.01;98197.36;107901;1275;70600;-72
2021/11/15 01:59:03;;;;;;;;;;;;;;;-2.94;84.04;98198.40;108014;1272;68565;-69
2021/11/15 02:01:33;;;;;;;;;;;;;;;-2.95;82.96;98195.52;107991;1275;69527;-72
2021/11/15 02:04:03;;;;;;;;;;;;;;;-2.97;82.86;98198.42;108032;1272;59723;-71
2021/11/15 02:06:32;;;;;;;;;;;;;;;-3.00;83.97;98203.05;108000;1276;59777;-71
2021/11/15 02:09:03;;;;;;;;;;;;;;;-3.02;83.07;98201.00;108066;1275;71487;-71
2021/11/15 02:11:33;;;;;;;;;;;;;;;-3.04;84.31;98209.23;108076;1272;67881;-72
2021/11/15 02:14:03;;;;;;;;;;;;;;;-3.06;83.04;98209.90;108043;1273;69706;-68
2021/11/15 02:16:33;;;;;;;;;;;;;;;-3.11;83.48;98208.23;108043;1275;59804;-70
2021/11/15 02:19:02;;;;;;;;;;;;;;;-3.13;82.28;98204.48;108092;1275;59713;-69
2021/11/15 02:21:32;;;;;;;;;;;;;;;-3.14;81.51;98203.98;107942;1272;71618;-72
2021/11/15 02:24:04;;;;;;;;;;;;;;;-3.15;81.71;98204.33;108058;1275;68695;-70
2021/11/15 02:26:35;;;;;;;;;;;;;;;-3.19;81.88;98206.91;108040;1272;69526;-73
2021/11/15 02:29:05;;;;;;;;;;;;;;;-3.22;82.51;98208.28;108001;1275;59710;-71
2021/11/15 02:31:35;;;;;;;;;;;;;;;-3.25;83.59;98217.17;108040;1275;59692;-68
2021/11/15 02:34:06;;;;;;;;;;;;;;;-3.26;83.64;98219.56;108127;1272;71392;-69
2021/11/15 02:36:35;;;;;;;;;;;;;;;-3.24;81.96;98217.84;108069;1272;67673;-72
2021/11/15 02:39:05;;;;;;;;;;;;;;;-3.25;81.84;98216.48;107998;1275;68681;-69
2021/11/15 02:41:35;;;;;;;;;;;;;;;-3.24;81.68;98217.67;108162;1275;59780;-73
2021/11/15 02:44:06;;;;;;;;;;;;;;;-3.24;82.19;98218.00;107936;1275;59735;-73
2021/11/15 02:46:36;;;;;;;;;;;;;;;-3.24;82.14;98221.09;107987;1272;69733;-73
2021/11/15 02:49:05;;;;;;;;;;;;;;;-3.25;82.27;98220.57;108034;1272;67815;-70
2021/11/15 02:51:35;;;;;;;;;;;;;;;-3.25;83.13;98226.02;108017;1273;68605;-72
2021/11/15 02:54:05;;;;;;;;;;;;;;;-3.25;83.15;98228.42;108028;1272;59788;-72
2021/11/15 02:56:35;;;;;;;;;;;;;;;-3.26;82.79;98229.79;108073;1272;59767;-69
2021/11/15 02:59:05;;;;;;;;;;;;;;;-3.26;82.87;98228.27;107801;1276;71024;-70
2021/11/15 03:01:34;;;;;;;;;;;;;;;-3.28;82.78;98225.37;108021;1272;68437;-70
2021/11/15 03:04:04;;;;;;;;;;;;;;;-3.30;83.35;98227.42;107984;1275;68366;-70
2021/11/15 03:06:34;;;;;;;;;;;;;;;-3.28;83.39;98230.33;107946;1276;59712;-70
2021/11/15 03:09:04;;;;;;;;;;;;;;;-3.26;82.07;98230.65;108047;1276;59724;-69
2021/11/15 03:11:34;;;;;;;;;;;;;;;-3.26;81.96;98231.49;108008;1272;70809;-71
2021/11/15 03:14:03;;;;;;;;;;;;;;;-3.27;82.07;98232.87;107929;1277;67689;-70
2021/11/15 03:16:32;;;;;;;;;;;;;;;-3.30;82.22;98235.95;107793;1275;68322;-71
2021/11/15 03:19:02;;;;;;;;;;;;;;;-3.33;85.11;98234.59;107998;1276;59804;-68
2021/11/15 03:21:33;;;;;;;;;;;;;;;-3.36;84.98;98237.50;108039;1275;59681;-72
2021/11/15 03:24:02;;;;;;;;;;;;;;;-3.42;86.70;98235.83;107951;1272;70589;-68
2021/11/15 03:26:31;;;;;;;;;;;;;;;-3.44;86.36;98238.90;107956;1272;68595;-69
2021/11/15 03:29:03;;;;;;;;;;;;;;;-3.45;85.78;98243.50;107996;1275;68495;-69
2021/11/15 03:31:34;;;;;;;;;;;;;;;-3.46;84.88;98245.73;107966;1275;59811;-71
2021/11/15 03:34:08;;;;;;;;;;;;;;;-3.47;84.59;98249.48;108067;1274;59708;-69
2021/11/15 03:36:38;;;;;;;;;;;;;;;-3.47;85.37;98248.28;108041;1274;69798;-73
2021/11/15 03:39:08;;;;;;;;;;;;;;;-3.47;85.89;98246.41;107952;1275;68587;-72
2021/11/15 03:41:39;;;;;;;;;;;;;;;-3.46;84.15;98247.95;108015;1272;69420;-72
2021/11/15 03:44:10;;;;;;;;;;;;;;;-3.46;84.45;98250.17;108028;1275;59765;-69
2021/11/15 03:46:39;;;;;;;;;;;;;;;-3.46;84.39;98256.30;108016;1275;59705;-73
2021/11/15 03:49:15;;;;;;;;;;;;;;;-3.46;83.53;98255.63;107973;1276;70746;-73
2021/11/15 03:51:44;;;;;;;;;;;;;;;-3.46;84.14;98251.36;108044;1272;67707;-72
2021/11/15 03:54:13;;;;;;;;;;;;;;;-3.48;85.72;98254.42;108078;1275;69466;-71
2021/11/15 03:56:42;;;;;;;;;;;;;;;-3.51;86.16;98254.44;108038;1272;59787;-72
2021/11/15 03:59:12;;;;;;;;;;;;;;;-3.50;84.75;98258.86;108019;1273;59726;-69
2021/11/15 04:01:43;;;;;;;;;;;;;;;-3.51;85.01;98257.33;107944;1275;70604;-72
2021/11/15 04:04:17;;;;;;;;;;;;;;;-3.51;84.46;98259.89;107993;1275;68698;-70
2021/11/15 04:06:51;;;;;;;;;;;;;;;-3.50;85.24;98261.93;107970;1272;68632;-70
2021/11/15 04:09:21;;;;;;;;;;;;;;;-3.51;85.08;98266.70;108192;1275;59842;-70
2021/11/15 04:11:50;;;;;;;;;;;;;;;-3.54;86.08;98265.69;108153;1273;59760;-71
2021/11/15 04:14:19;;;;;;;;;;;;;;;-3.60;86.33;98263.84;108048;1272;71878;-71
2021/11/15 04:16:49;;;;;;;;;;;;;;;-3.62;85.31;98265.36;107994;1272;67654;-68
2021/11/15 04:19:19;;;;;;;;;;;;;;;-3.66;84.91;98269.30;108082;1275;68885;-70
2021/11/15 04:21:50;;;;;;;;;;;;;;;-3.70;84.59;98271.36;107979;1272;59792;-68
2021/11/15 04:24:20;;;;;;;;;;;;;;;-3.73;84.09;98275.30;108050;1275;59746;-68
2021/11/15 04:26:49;;;;;;;;;;;;;;;-3.75;83.88;98274.95;107982;1273;70783;-67
2021/11/15 04:29:18;;;;;;;;;;;;;;;-3.81;85.58;98271.22;108012;1275;68668;-69
2021/11/15 04:31:47;;;;;;;;;;;;;;;-3.80;85.71;98275.48;108032;1275;68854;-69
2021/11/15 04:34:17;;;;;;;;;;;;;;;-3.78;85.61;98280.07;108034;1272;59764;-69
2021/11/15 04:36:45;;;;;;;;;;;;;;;-3.78;84.52;98277.52;108026;1275;59790;-70
2021/11/15 04:39:15;;;;;;;;;;;;;;;-3.81;84.02;98279.56;108000;1275;70618;-71
2021/11/15 04:41:44;;;;;;;;;;;;;;;-3.89;85.45;98276.85;107915;1275;69713;-72
2021/11/15 04:44:13;;;;;;;;;;;;;;;-3.95;84.83;98276.52;108021;1272;69527;-71
2021/11/15 04:46:43;;;;;;;;;;;;;;;-4.00;83.97;98280.09;108122;1272;59761;-69
2021/11/15 04:49:12;;;;;;;;;;;;;;;-4.05;84.61;98279.59;108134;1275;59719;-72
2021/11/15 04:51:41;;;;;;;;;;;;;;;-4.10;84.60;98280.61;107974;1273;70680;-70
2021/11/15 04:54:11;;;;;;;;;;;;;;;-4.14;84.18;98286.76;108158;1272;68048;-68
2021/11/15 04:56:41;;;;;;;;;;;;;;;-4.21;85.06;98284.88;107610;1272;616816;-68
2021/11/15 04:59:11;;;;;;;;;;;;;;;-4.23;83.88;98285.39;108108;1275;59771;-72
2021/11/15 05:01:40;;;;;;;;;;;;;;;-4.25;83.16;98287.27;108205;1272;59709;-71
2021/11/15 05:04:09;;;;;;;;;;;;;;;-4.29;83.37;98290.68;108082;1275;71668;-72
2021/11/15 05:06:38;;;;;;;;;;;;;;;-4.32;83.38;98294.42;108132;1275;67682;-69
2021/11/15 05:09:07;;;;;;;;;;;;;;;-4.35;84.01;98295.77;108105;1272;68295;-71
2021/11/15 05:11:37;;;;;;;;;;;;;;;-4.37;83.76;98297.30;107973;1275;59782;-71
2021/11/15 05:14:05;;;;;;;;;;;;;;;-4.39;84.53;98300.35;107994;1275;59694;-68
2021/11/15 05:16:34;;;;;;;;;;;;;;;-4.40;85.58;98307.84;108053;1272;70615;-71
2021/11/15 05:19:03;;;;;;;;;;;;;;;-4.39;84.88;98313.79;108111;1272;67847;-68
2021/11/15 05:21:32;;;;;;;;;;;;;;;-4.38;83.56;98319.93;107967;1275;69444;-70
2021/11/15 05:24:01;;;;;;;;;;;;;;;-4.38;82.89;98322.48;107934;1273;59773;-72
2021/11/15 05:26:30;;;;;;;;;;;;;;;-4.39;83.77;98323.84;108073;1272;59693;-72
2021/11/15 05:28:59;;;;;;;;;;;;;;;-4.39;84.10;98330.30;108115;1273;70821;-68
2021/11/15 05:31:30;;;;;;;;;;;;;;;-4.40;83.78;98333.37;108178;1272;66984;-69
2021/11/15 05:33:59;;;;;;;;;;;;;;;-4.41;83.54;98332.34;108081;1272;68277;-70
2021/11/15 05:36:28;;;;;;;;;;;;;;;-4.40;83.64;98334.90;108078;1274;59689;-68
2021/11/15 05:38:57;;;;;;;;;;;;;;;-4.40;82.91;98336.77;108068;1272;59799;-69
2021/11/15 05:41:26;;;;;;;;;;;;;;;-4.40;83.05;98338.80;107980;1275;72187;-70
2021/11/15 05:43:55;;;;;;;;;;;;;;;-4.42;83.63;98339.16;108092;1272;68074;-70
2021/11/15 05:46:24;;;;;;;;;;;;;;;-4.40;84.35;98340.70;108161;1274;68686;-72
2021/11/15 05:48:54;;;;;;;;;;;;;;;-4.39;84.84;98343.23;108051;1272;59658;-71
2021/11/15 05:51:23;;;;;;;;;;;;;;;-4.35;83.65;98346.98;108045;1272;59671;-69
2021/11/15 05:53:51;;;;;;;;;;;;;;;-4.32;83.38;98349.89;108124;1272;71193;-68
2021/11/15 05:56:20;;;;;;;;;;;;;;;-4.26;82.97;98352.79;108174;1274;66836;-71
2021/11/15 05:58:49;;;;;;;;;;;;;;;-4.21;82.92;98355.86;108035;1274;67619;-67
2021/11/15 06:01:18;;;;;;;;;;;;;;;-4.16;82.97;98353.99;108049;1272;59767;-69
2021/11/15 06:03:47;;;;;;;;;;;;;;;-4.10;82.93;98355.20;108039;1273;59746;-69
2021/11/15 06:06:17;;;;;;;;;;;;;;;-4.03;82.85;98356.90;108043;1272;70799;-70
2021/11/15 06:08:45;;;;;;;;;;;;;;;-3.98;84.21;98356.38;108011;1275;67876;-70
2021/11/15 06:11:14;;;;;;;;;;;;;;;-3.91;84.61;98362.34;108079;1272;69615;-72
2021/11/15 06:13:43;;;;;;;;;;;;;;;-3.83;83.99;98363.36;107941;1275;59713;-68
2021/11/15 06:16:12;;;;;;;;;;;;;;;-3.76;83.81;98368.81;108061;1270;59724;-70
2021/11/15 06:18:41;;;;;;;;;;;;;;;-3.68;83.42;98369.66;108098;1274;70592;-70
2021/11/15 06:21:10;;;;;;;;;;;;;;;-3.59;82.99;98374.42;107853;1272;67904;-70
2021/11/15 06:23:38;;;;;;;;;;;;;;;-3.49;82.93;98375.43;108093;1272;68679;-69
2021/11/15 06:26:07;;;;;;;;;;;;;;;-3.38;82.77;98375.59;108096;1275;59760;-70
2021/11/15 06:28:36;;;;;;;;;;;;;;;-3.24;82.59;98379.81;108034;1272;59710;-71
2021/11/15 06:31:08;;;;;;;;;;;;;;;-3.10;83.13;98382.16;108113;1272;70807;-70
2021/11/15 06:33:38;;;;;;;;;;;;;;;-2.94;84.16;98387.23;108156;1272;68736;-68
2021/11/15 06:36:07;;;;;;;;;;;;;;;-2.79;83.42;98390.58;107922;1272;69422;-69
2021/11/15 06:38:40;;;;;;;;;;;;;;;-2.55;82.94;98394.23;108001;1275;59719;-71
2021/11/15 06:41:09;;;;;;;;;;;;;;;-2.07;82.69;98396.52;107994;1272;59659;-69
2021/11/15 06:43:37;;;;;;;;;;;;;;;-1.37;82.40;98389.96;107991;1275;71598;-71
2021/11/15 06:46:06;;;;;;;;;;;;;;;-0.62;81.52;98398.55;108071;1272;68623;-71
2021/11/15 06:48:41;;;;;;;;;;;;;;;0.22;80.14;98399.08;107894;1275;69500;-70
2021/11/15 06:51:30;;;;;;;;;;;;;;;1.08;74.52;98394.66;107914;1276;59724;-73
2021/11/15 06:53:59;;;;;;;;;;;;;;;1.69;70.77;98395.33;108048;1273;59708;-72
2021/11/15 06:56:27;;;;;;;;;;;;;;;2.12;71.15;98395.89;108073;1272;71544;-73
2021/11/15 06:58:56;;;;;;;;;;;;;;;2.72;70.02;98398.41;108001;1275;68778;-70
2021/11/15 07:01:25;;;;;;;;;;;;;;;3.32;71.95;98408.35;107921;1276;68646;-72
2021/11/15 07:03:54;;;;;;;;;;;;;;;3.91;70.08;98408.02;107928;1273;59698;-72
2021/11/15 07:06:23;;;;;;;;;;;;;;;4.53;68.09;98405.20;107965;1275;59794;-73
2021/11/15 07:08:52;;;;;;;;;;;;;;;4.81;60.12;98401.14;107999;1272;71668;-72
2021/11/15 07:11:22;;;;;;;;;;;;;;;5.01;58.03;98402.55;107942;1275;68672;-72
2021/11/15 07:13:52;;;;;;;;;;;;;;;5.31;60.11;98403.56;107976;1272;69534;-70
2021/11/15 07:16:21;;;;;;;;;;;;;;;5.50;58.03;98402.34;107927;1276;59804;-70
2021/11/15 07:18:52;;;;;;;;;;;;;;;6.06;59.93;98404.59;107997;1274;59702;-72
2021/11/15 07:21:21;;;;;;;;;;;;;;;6.59;56.74;98402.50;108019;1274;70867;-71
2021/11/15 07:23:50;;;;;;;;;;;;;;;6.98;54.79;98410.02;107997;1275;69166;-72
2021/11/15 07:26:21;;;;;;;;;;;;;;;7.43;54.03;98411.73;108006;1272;69691;-71
2021/11/15 07:28:50;;;;;;;;;;;;;;;7.87;53.58;98411.33;107965;1276;59747;-72
2021/11/15 07:31:19;;;;;;;;;;;;;;;7.86;51.93;98411.19;107998;1276;59697;-70
2021/11/15 07:33:49;;;;;;;;;;;;;;;8.10;53.45;98411.47;107910;1276;70998;-72
2021/11/15 07:36:18;;;;;;;;;;;;;;;8.55;56.49;98409.33;108023;1271;68739;-72
2021/11/15 07:38:47;;;;;;;;;;;;;;;9.11;53.94;98409.35;107946;1275;70027;-74
2021/11/15 07:41:16;;;;;;;;;;;;;;;9.57;51.48;98411.83;107983;1272;59700;-74
2021/11/15 07:43:45;;;;;;;;;;;;;;;9.94;49.34;98416.08;107975;1272;59691;-73
2021/11/15 07:46:14;;;;;;;;;;;;;;;9.52;47.36;98413.13;108104;1272;71370;-74
2021/11/15 07:48:42;;;;;;;;;;;;;;;9.24;47.53;98406.06;108035;1272;67442;-73
2021/11/15 07:51:12;;;;;;;;;;;;;;;9.27;48.07;98407.61;108026;1272;69511;-74
2021/11/15 07:53:41;;;;;;;;;;;;;;;8.75;48.72;98410.97;107940;1274;59713;-72
2021/11/15 07:56:11;;;;;;;;;;;;;;;8.65;49.64;98415.82;108224;1272;59658;-73
2021/11/15 07:58:40;;;;;;;;;;;;;;;8.80;49.68;98411.92;107989;1273;71492;-73
2021/11/15 08:01:09;;;;;;;;;;;;;;;9.37;49.23;98413.19;108010;1272;68655;-73
2021/11/15 08:03:41;;;;;;;;;;;;;;;10.14;48.72;98414.28;108005;1271;69497;-72
2021/11/15 08:06:11;;;;;;;;;;;;;;;10.99;50.38;98413.84;107990;1272;59774;-71
2021/11/15 08:08:40;;;;;;;;;;;;;;;11.79;48.75;98416.40;108001;1272;59703;-72
2021/11/15 08:11:09;;;;;;;;;;;;;;;12.48;48.73;98410.29;107935;1275;70620;-73
2021/11/15 08:13:39;;;;;;;;;;;;;;;13.06;47.87;98407.00;107991;1273;68241;-71
2021/11/15 08:16:08;;;;;;;;;;;;;;;13.58;46.78;98406.65;108125;1272;69371;-72
2021/11/15 08:18:37;;;;;;;;;;;;;;;13.89;42.06;98403.56;108033;1271;59784;-72
2021/11/15 08:21:12;;;;;;;;;;;;;;;14.19;42.67;98409.71;108005;1271;59705;-74
2021/11/15 08:23:42;;;;;;;;;;;;;;;14.48;42.63;98409.39;107983;1275;71615;-74
2021/11/15 08:26:26;;;;;;;;;;;;;;;15.00;41.37;98407.31;108040;1272;68650;-73
2021/11/15 08:29:15;;;;;;;;;;;;;;;15.20;39.66;98407.16;108024;1272;69472;-75
2021/11/15 08:31:45;;;;;;;;;;;;;;;15.20;40.22;98406.70;108011;1272;59787;-72
2021/11/15 08:34:14;;;;;;;;;;;;;;;15.54;40.85;98411.44;108100;1275;59679;-71
2021/11/15 08:36:43;;;;;;;;;;;;;;;15.63;39.34;98412.81;107988;1272;71585;-72
2021/11/15 08:39:14;;;;;;;;;;;;;;;15.46;38.06;98410.66;108028;1272;68669;-74
2021/11/15 08:41:47;;;;;;;;;;;;;;;14.68;39.65;98405.63;108088;1272;69759;-72
2021/11/15 08:44:17;;;;;;;;;;;;;;;15.41;39.53;98412.08;107972;1273;59716;-75
2021/11/15 08:46:47;;;;;;;;;;;;;;;15.76;38.77;98413.56;108066;1275;59744;-73
2021/11/15 08:49:17;;;;;;;;;;;;;;;15.06;38.92;98412.79;108037;1271;72233;-74
2021/11/15 08:51:46;;;;;;;;;;;;;;;15.60;39.12;98416.93;108027;1271;68471;-74
2021/11/15 08:54:16;;;;;;;;;;;;;;;15.98;39.29;98416.65;107988;1275;69463;-72
2021/11/15 08:56:46;;;;;;;;;;;;;;;16.02;37.50;98415.77;108014;1271;59826;-73
2021/11/15 08:59:35;;;;;;;;;;;;;;;15.08;39.78;98415.42;107966;1272;59711;-73
2021/11/15 09:02:03;;;;;;;;;;;;;;;15.08;39.46;98411.57;107996;1275;72147;-73
2021/11/15 09:04:33;;;;;;;;;;;;;;;15.10;40.06;98411.98;108030;1273;68662;-74
2021/11/15 09:07:01;;;;;;;;;;;;;;;14.98;39.60;98406.02;108004;1272;69497;-73
2021/11/15 09:09:30;;;;;;;;;;;;;;;14.50;41.17;98406.91;108020;1271;59751;-73
2021/11/15 09:12:02;;;;;;;;;;;;;;;14.95;40.49;98405.54;108047;1272;59710;-74
2021/11/15 09:14:31;;;;;;;;;;;;;;;15.33;39.95;98404.61;108105;1272;71569;-75
2021/11/15 09:17:00;;;;;;;;;;;;;;;14.85;40.48;98398.73;108042;1274;68858;-74
2021/11/15 09:19:29;;;;;;;;;;;;;;;15.97;39.64;98400.55;108021;1272;68623;-75
2021/11/15 09:21:58;;;;;;;;;;;;;;;16.61;37.65;98392.92;107854;1271;59762;-74
2021/11/15 09:24:27;;;;;;;;;;;;;;;17.30;36.43;98393.70;108118;1271;59681;-73
2021/11/15 09:26:55;;;;;;;;;;;;;;;18.08;35.26;98392.27;108020;1271;70867;-73
2021/11/15 09:29:26;;;;;;;;;;;;;;;18.87;34.38;98387.66;108075;1271;68620;-72
2021/11/15 09:31:55;;;;;;;;;;;;;;;19.50;32.29;98386.46;107956;1275;70020;-73
2021/11/15 09:34:25;;;;;;;;;;;;;;;19.29;31.81;98382.88;108052;1272;59796;-74
2021/11/15 09:36:53;;;;;;;;;;;;;;;19.77;32.05;98387.23;108051;1272;59694;-73
2021/11/15 09:39:24;;;;;;;;;;;;;;;19.98;31.79;98382.94;108007;1272;71563;-74
2021/11/15 09:41:53;;;;;;;;;;;;;;;20.87;31.81;98372.26;107916;1275;67992;-74
2021/11/15 09:44:22;;;;;;;;;;;;;;;21.05;29.20;98371.73;107996;1272;68534;-72
2021/11/15 09:46:51;;;;;;;;;;;;;;;21.08;28.41;98372.82;107977;1275;59786;-74
2021/11/15 09:49:20;;;;;;;;;;;;;;;21.27;27.72;98367.92;108026;1271;59715;-75
2021/11/15 09:51:49;;;;;;;;;;;;;;;20.69;28.15;98368.65;107919;1275;71605;-73
2021/11/15 09:54:19;;;;;;;;;;;;;;;20.08;28.71;98375.06;108014;1272;69342;-73
2021/11/15 09:56:49;;;;;;;;;;;;;;;20.04;28.73;98375.86;107972;1275;69044;-73
2021/11/15 09:59:17;;;;;;;;;;;;;;;20.00;28.97;98378.30;108025;1274;59698;-74
2021/11/15 10:01:49;;;;;;;;;;;;;;;19.39;29.49;98372.98;108019;1272;60193;-74
2021/11/15 10:04:18;;;;;;;;;;;;;;;19.34;29.87;98370.82;108121;1272;70805;-74
2021/11/15 10:06:48;;;;;;;;;;;;;;;19.16;30.52;98367.11;107987;1272;68647;-73
2021/11/15 10:09:27;;;;;;;;;;;;;;;19.64;29.76;98367.33;108003;1271;69525;-73
2021/11/15 10:11:57;;;;;;;;;;;;;;;20.06;29.16;98366.76;107876;1272;59770;-75
2021/11/15 10:14:26;;;;;;;;;;;;;;;20.32;28.29;98360.58;108021;1272;59706;-76
2021/11/15 10:16:58;;;;;;;;;;;;;;;20.25;28.01;98362.80;107988;1275;70661;-74
2021/11/15 10:19:28;;;;;;;;;;;;;;;19.40;28.73;98368.42;107974;1272;67868;-75
2021/11/15 10:21:58;;;;;;;;;;;;;;;19.21;28.99;98366.39;108007;1271;69495;-76
2021/11/15 10:24:35;;;;;;;;;;;;;;;18.58;29.79;98363.59;108026;1275;59841;-76
2021/11/15 10:27:06;;;;;;;;;;;;;;;18.08;30.98;98370.25;107989;1273;59786;-76
2021/11/15 10:29:39;;;;;;;;;;;;;;;17.84;31.78;98373.58;107972;1272;71627;-76
2021/11/15 10:32:09;;;;;;;;;;;;;;;18.20;31.31;98375.65;108106;1272;67874;-75
2021/11/15 10:34:39;;;;;;;;;;;;;;;18.76;30.11;98371.56;108107;1272;69261;-76
2021/11/15 10:37:14;;;;;;;;;;;;;;;18.90;29.86;98370.32;108013;1272;59723;-73
2021/11/15 10:39:46;;;;;;;;;;;;;;;18.96;29.78;98371.86;108038;1272;59695;-74
2021/11/15 10:42:21;;;;;;;;;;;;;;;18.78;30.70;98369.11;108076;1271;71594;-75
2021/11/15 10:44:58;;;;;;;;;;;;;;;18.94;30.50;98371.11;107947;1275;68633;-76
2021/11/15 10:47:34;;;;;;;;;;;;;;;18.61;30.67;98377.98;107992;1271;68471;-75
2021/11/15 10:50:23;;;;;;;;;;;;;;;19.28;29.55;98376.67;107982;1275;59770;-75
2021/11/15 10:53:01;;;;;;;;;;;;;;;19.84;28.63;98379.32;107966;1272;59727;-73
2021/11/15 10:55:31;;;;;;;;;;;;;;;20.17;28.35;98379.19;108091;1272;71614;-76
2021/11/15 10:58:00;;;;;;;;;;;;;;;20.52;27.67;98380.39;107967;1274;68881;-77
2021/11/15 11:00:34;;;;;;;;;;;;;;;20.55;27.22;98376.58;108112;1272;69528;-74
2021/11/15 11:03:17;;;;;;;;;;;;;;;20.06;28.20;98378.64;107814;1275;59734;-75
2021/11/15 11:05:47;;;;;;;;;;;;;;;20.10;28.32;98374.69;108063;1272;59809;-75
2021/11/15 11:08:21;;;;;;;;;;;;;;;20.46;27.73;98373.05;108049;1272;71480;-77
2021/11/15 11:10:56;;;;;;;;;;;;;;;21.06;27.15;98377.15;108019;1272;69232;-76
2021/11/15 11:13:31;;;;;;;;;;;;;;;21.35;26.58;98377.23;108086;1272;68632;-75
2021/11/15 11:16:00;;;;;;;;;;;;;;;20.83;26.46;98374.80;107830;1275;59769;-75
2021/11/15 11:26:29;;;;;;;;;;;;;;;19.00;28.89;98376.38;108019;1272;69797;-74
2021/11/15 11:29:00;;;;;;;;;;;;;;;18.90;29.34;98371.33;107835;1271;60582;-76
2021/11/15 11:31:33;;;;;;;;;;;;;;;19.29;28.43;98374.95;107853;1275;59712;-76
2021/11/15 11:34:01;;;;;;;;;;;;;;;19.01;28.81;98363.60;107997;1272;71564;-76
2021/11/15 11:36:30;;;;;;;;;;;;;;;19.08;28.75;98365.12;107712;1275;68594;-77
2021/11/15 11:38:59;;;;;;;;;;;;;;;19.12;28.77;98372.29;107917;1274;69508;-72
2021/11/15 11:41:29;;;;;;;;;;;;;;;19.57;28.23;98374.30;107996;1272;59735;-77
2021/11/15 11:43:57;;;;;;;;;;;;;;;19.81;27.93;98374.80;107770;1276;59702;-75
2021/11/15 11:46:27;;;;;;;;;;;;;;;19.57;28.05;98376.80;107790;1272;70635;-75
2021/11/15 11:48:56;;;;;;;;;;;;;;;19.73;27.94;98374.56;107985;1272;67760;-74
2021/11/15 11:51:28;;;;;;;;;;;;;;;19.85;27.77;98372.88;108050;1271;68760;-79
2021/11/15 11:54:11;;;;;;;;;;;;;;;19.82;27.78;98374.41;107930;1275;59685;-72
2021/11/15 11:56:40;;;;;;;;;;;;;;;19.45;28.43;98375.09;108061;1272;59716;-73
2021/11/15 11:59:11;;;;;;;;;;;;;;;20.03;28.08;98381.19;108052;1272;71502;-75
2021/11/15 12:01:41;;;;;;;;;;;;;;;20.75;27.16;98379.23;108064;1272;69302;-74
2021/11/15 12:04:17;;;;;;;;;;;;;;;21.07;26.54;98375.04;107777;1275;69450;-75
2021/11/15 12:06:48;;;;;;;;;;;;;;;20.96;26.57;98384.55;107767;1274;59775;-74
2021/11/15 12:09:22;;;;;;;;;;;;;;;20.16;27.48;98384.44;107970;1274;59693;-73
2021/11/15 12:12:01;;;;;;;;;;;;;;;20.52;26.96;98378.57;108022;1271;71781;-76
2021/11/15 12:14:38;;;;;;;;;;;;;;;20.22;27.45;98381.15;107952;1275;67336;-77
2021/11/15 12:17:09;;;;;;;;;;;;;;;20.60;27.32;98378.02;108018;1271;68715;-75
2021/11/15 12:19:50;;;;;;;;;;;;;;;20.51;27.26;98374.13;107841;1274;59752;-75
2021/11/15 12:22:27;;;;;;;;;;;;;;;20.81;26.77;98376.98;107998;1275;59807;-76
2021/11/15 12:25:05;;;;;;;;;;;;;;;20.23;27.60;98379.45;108048;1272;72158;-75
2021/11/15 12:27:38;;;;;;;;;;;;;;;20.52;26.86;98370.13;108027;1274;69195;-74
2021/11/15 12:30:07;;;;;;;;;;;;;;;20.02;27.51;98373.21;107844;1274;68638;-73
2021/11/15 12:32:36;;;;;;;;;;;;;;;20.30;27.37;98370.30;107974;1272;59702;-72
2021/11/15 12:35:05;;;;;;;;;;;;;;;20.55;27.44;98370.30;107936;1274;59735;-73
2021/11/15 12:37:39;;;;;;;;;;;;;;;21.15;26.64;98368.23;108008;1272;71544;-73
2021/11/15 12:40:09;;;;;;;;;;;;;;;21.00;26.60;98371.02;108029;1274;69047;-74
2021/11/15 12:42:38;;;;;;;;;;;;;;;20.93;26.71;98367.95;107911;1275;68716;-73
2021/11/15 12:45:08;;;;;;;;;;;;;;;20.98;26.61;98368.05;108036;1271;59722;-77
2021/11/15 12:47:44;;;;;;;;;;;;;;;20.79;27.05;98375.55;108022;1271;59771;-73
2021/11/15 12:50:17;;;;;;;;;;;;;;;20.93;26.78;98374.34;107974;1274;69965;-76
2021/11/15 12:52:53;;;;;;;;;;;;;;;20.84;26.66;98378.29;108030;1272;68648;-73
2021/11/15 12:55:23;;;;;;;;;;;;;;;20.30;27.49;98384.68;107998;1272;68520;-71
2021/11/15 12:57:53;;;;;;;;;;;;;;;20.39;27.63;98385.85;107766;1272;391964;-72
2021/11/15 13:00:31;;;;;;;;;;;;;;;20.44;27.70;98380.96;108054;1272;59731;-73
2021/11/15 13:03:02;;;;;;;;;;;;;;;20.72;27.05;98382.45;108153;1272;70790;-77